createdAt,value
2018-05-01T00:02:03.122Z,2.13
2018-05-01T00:04:31.419Z,2.20
2018-05-01T00:06:59.744Z,2.07
2018-05-01T00:09:28.044Z,2.27
2018-05-01T00:11:56.366Z,2.07
2018-05-01T00:14:24.644Z,2.00
2018-05-01T00:16:52.985Z,1.90
2018-05-01T00:19:22.041Z,2.10
2018-05-01T00:21:50.351Z,2.57
2018-05-01T00:24:18.631Z,2.60
2018-05-01T00:26:46.951Z,2.37
2018-05-01T00:29:15.229Z,2.60
2018-05-01T00:31:43.532Z,2.40
2018-05-01T00:34:11.867Z,2.70
2018-05-01T00:36:40.236Z,2.40
2018-05-01T00:39:08.550Z,2.93
2018-05-01T00:41:36.884Z,2.73
2018-05-01T00:44:05.286Z,2.70
2018-05-01T00:46:33.662Z,2.73
2018-05-01T00:49:02.081Z,2.50
2018-05-01T00:51:30.489Z,2.50
2018-05-01T00:53:58.949Z,2.57
2018-05-01T00:56:27.378Z,2.30
2018-05-01T00:58:55.772Z,2.40
2018-05-01T01:01:24.121Z,2.90
2018-05-01T01:03:53.316Z,2.80
2018-05-01T01:06:21.697Z,2.60
2018-05-01T01:08:50.851Z,2.40
2018-05-01T01:11:19.162Z,2.67
2018-05-01T01:13:48.317Z,2.47
2018-05-01T01:16:16.594Z,2.70
2018-05-01T01:18:44.916Z,2.93
2018-05-01T01:21:13.196Z,2.63
2018-05-01T01:23:41.524Z,2.23
2018-05-01T01:26:09.796Z,2.43
2018-05-01T01:28:38.103Z,2.40
2018-05-01T01:31:06.373Z,2.60
2018-05-01T01:33:34.684Z,2.30
2018-05-01T01:36:03.238Z,2.50
2018-05-01T01:38:31.146Z,2.80
2018-05-01T01:40:58.976Z,2.67
2018-05-01T01:43:26.884Z,3.03
2018-05-01T01:45:54.764Z,2.80
2018-05-01T01:48:22.663Z,2.63
2018-05-01T01:50:50.474Z,2.97
2018-05-01T01:53:19.053Z,3.47
2018-05-01T01:55:46.857Z,2.80
2018-05-01T01:58:14.665Z,2.83
2018-05-01T02:00:42.504Z,3.10
2018-05-01T02:03:10.304Z,3.10
2018-05-01T02:05:38.908Z,3.23
2018-05-01T02:08:06.724Z,3.03
2018-05-01T02:10:34.559Z,3.10
2018-05-01T02:13:02.343Z,3.00
2018-05-01T02:15:30.154Z,3.00
2018-05-01T02:17:58.732Z,3.40
2018-05-01T02:20:26.544Z,3.30
2018-05-01T02:22:54.328Z,3.27
2018-05-01T02:25:22.141Z,3.30
2018-05-01T02:27:49.957Z,3.20
2018-05-01T02:30:17.917Z,3.03
2018-05-01T02:32:45.845Z,3.23
2018-05-01T02:35:13.794Z,3.27
2018-05-01T02:37:41.665Z,3.10
2018-05-01T02:40:09.542Z,3.30
2018-05-01T02:42:37.383Z,3.40
2018-05-01T02:45:06.116Z,3.20
2018-05-01T02:47:33.972Z,3.17
2018-05-01T02:50:02.601Z,3.10
2018-05-01T02:52:30.439Z,3.27
2018-05-01T02:54:58.377Z,3.07
2018-05-01T02:57:26.293Z,3.50
2018-05-01T02:59:54.180Z,3.33
2018-05-01T03:02:22.043Z,3.13
2018-05-01T03:04:49.956Z,3.10
2018-05-01T03:07:17.801Z,3.10
2018-05-01T03:09:45.776Z,3.20
2018-05-01T03:12:13.556Z,3.37
2018-05-01T03:14:42.189Z,3.40
2018-05-01T03:17:09.973Z,3.30
2018-05-01T03:19:37.800Z,3.23
2018-05-01T03:22:05.595Z,3.40
2018-05-01T03:24:33.434Z,3.63
2018-05-01T03:27:01.241Z,3.40
2018-05-01T03:29:29.048Z,3.50
2018-05-01T03:31:56.885Z,3.33
2018-05-01T03:34:24.672Z,3.10
2018-05-01T03:36:53.261Z,2.90
2018-05-01T03:39:21.828Z,2.40
2018-05-01T03:41:49.644Z,2.40
2018-05-01T03:44:17.442Z,2.60
2018-05-01T03:46:45.266Z,2.37
2018-05-01T03:49:13.056Z,2.37
2018-05-01T03:51:40.893Z,2.20
2018-05-01T03:54:08.704Z,2.20
2018-05-01T03:56:36.541Z,2.27
2018-05-01T03:59:04.345Z,2.10
2018-05-01T04:01:32.949Z,1.70
2018-05-01T04:04:01.513Z,2.20
2018-05-01T04:06:29.340Z,2.33
2018-05-01T04:08:57.999Z,2.40
2018-05-01T04:11:26.591Z,2.10
2018-05-01T04:13:55.136Z,1.90
2018-05-01T04:16:22.949Z,2.10
2018-05-01T04:18:50.755Z,2.03
2018-05-01T04:21:18.609Z,1.90
2018-05-01T04:23:46.480Z,2.20
2018-05-01T04:26:14.331Z,2.50
2018-05-01T04:28:42.179Z,2.47
2018-05-01T04:31:10.038Z,2.50
2018-05-01T04:33:37.866Z,2.40
2018-05-01T04:36:06.514Z,2.83
2018-05-01T04:38:34.372Z,2.80
2018-05-01T04:41:02.221Z,2.97
2018-05-01T04:43:30.110Z,2.60
2018-05-01T04:45:58.029Z,2.60
2018-05-01T04:48:26.659Z,2.60
2018-05-01T04:50:54.533Z,3.33
2018-05-01T04:53:22.388Z,2.70
2018-05-01T04:55:50.272Z,2.40
2018-05-01T04:58:18.147Z,3.00
2018-05-01T05:00:45.942Z,2.70
2018-05-01T05:03:13.768Z,2.50
2018-05-01T05:05:41.574Z,2.57
2018-05-01T05:08:09.406Z,3.00
2018-05-01T05:10:37.229Z,3.23
2018-05-01T05:13:05.101Z,2.70
2018-05-01T05:15:33.728Z,2.83
2018-05-01T05:18:01.638Z,2.60
2018-05-01T05:20:29.505Z,2.50
2018-05-01T05:22:58.208Z,2.80
2018-05-01T05:25:26.063Z,2.67
2018-05-01T05:27:54.729Z,3.00
2018-05-01T05:30:22.594Z,2.90
2018-05-01T05:32:50.424Z,2.80
2018-05-01T05:35:18.242Z,3.07
2018-05-01T05:37:46.070Z,3.07
2018-05-01T05:40:13.877Z,2.90
2018-05-01T05:42:42.481Z,3.23
2018-05-01T05:45:10.302Z,3.57
2018-05-01T05:47:38.146Z,2.90
2018-05-01T05:50:05.962Z,3.20
2018-05-01T05:52:34.549Z,2.87
2018-05-01T05:55:02.343Z,3.40
2018-05-01T05:57:30.166Z,3.13
2018-05-01T05:59:57.957Z,3.40
2018-05-01T06:02:25.772Z,3.20
2018-05-01T06:04:54.329Z,3.03
2018-05-01T06:07:22.160Z,3.50
2018-05-01T06:09:50.729Z,3.73
2018-05-01T06:12:18.540Z,3.33
2018-05-01T06:14:46.344Z,2.90
2018-05-01T06:17:14.153Z,3.00
2018-05-01T06:19:42.704Z,2.87
2018-05-01T06:22:10.555Z,3.33
2018-05-01T06:24:38.372Z,3.10
2018-05-01T06:27:06.161Z,2.53
2018-05-01T06:29:33.984Z,2.60
2018-05-01T06:32:01.797Z,3.03
2018-05-01T06:34:29.622Z,3.23
2018-05-01T06:36:58.200Z,3.57
2018-05-01T06:39:26.800Z,3.10
2018-05-01T06:41:55.352Z,2.70
2018-05-01T06:44:23.175Z,3.10
2018-05-01T06:46:50.970Z,3.50
2018-05-01T06:49:18.780Z,3.10
2018-05-01T06:51:47.345Z,3.47
2018-05-01T06:54:15.965Z,3.30
2018-05-01T06:56:43.753Z,3.30
2018-05-01T06:59:11.597Z,4.00
2018-05-01T07:01:39.428Z,4.07
2018-05-01T07:04:07.353Z,3.70
2018-05-01T07:06:35.283Z,3.73
2018-05-01T07:09:03.249Z,4.23
2018-05-01T07:11:31.892Z,3.67
2018-05-01T07:13:59.793Z,3.67
2018-05-01T07:16:28.378Z,3.47
2018-05-01T07:18:56.983Z,3.40
2018-05-01T07:21:24.773Z,4.20
2018-05-01T07:23:52.584Z,4.00
2018-05-01T07:26:20.385Z,4.30
2018-05-01T07:28:48.196Z,4.23
2018-05-01T07:31:15.985Z,4.40
2018-05-01T07:33:44.664Z,4.40
2018-05-01T07:36:13.252Z,4.40
2018-05-01T07:38:41.055Z,4.60
2018-05-01T07:41:08.869Z,4.63
2018-05-01T07:43:36.697Z,4.30
2018-05-01T07:46:04.486Z,4.73
2018-05-01T07:48:32.318Z,4.43
2018-05-01T07:51:00.099Z,4.23
2018-05-01T07:53:27.909Z,4.50
2018-05-01T07:55:55.749Z,5.00
2018-05-01T07:58:24.390Z,4.97
2018-05-01T08:00:52.312Z,4.90
2018-05-01T08:03:20.172Z,4.67
2018-05-01T08:05:48.051Z,5.47
2018-05-01T08:08:16.664Z,5.13
2018-05-01T08:10:44.548Z,4.53
2018-05-01T08:13:12.418Z,5.00
2018-05-01T08:15:40.316Z,5.10
2018-05-01T08:18:08.154Z,4.77
2018-05-01T08:20:36.034Z,5.50
2018-05-01T08:23:03.960Z,5.00
2018-05-01T08:25:32.611Z,4.97
2018-05-01T08:28:00.452Z,5.40
2018-05-01T08:30:28.396Z,5.00
2018-05-01T08:32:56.209Z,5.00
2018-05-01T08:35:24.864Z,5.33
2018-05-01T08:37:52.718Z,5.70
2018-05-01T08:40:20.573Z,5.50
2018-05-01T08:42:48.437Z,5.10
2018-05-01T08:45:17.145Z,5.40
2018-05-01T08:47:44.989Z,4.93
2018-05-01T08:50:13.669Z,5.10
2018-05-01T08:52:41.539Z,5.33
2018-05-01T08:55:09.393Z,5.40
2018-05-01T08:57:37.180Z,5.27
2018-05-01T09:00:05.751Z,5.00
2018-05-01T09:02:33.540Z,5.57
2018-05-01T09:05:02.134Z,5.97
2018-05-01T09:07:29.928Z,6.53
2018-05-01T09:09:57.744Z,5.43
2018-05-01T09:12:25.549Z,5.67
2018-05-01T09:14:53.392Z,5.40
2018-05-01T09:17:21.181Z,5.00
2018-05-01T09:19:48.964Z,4.77
2018-05-01T09:22:16.789Z,5.67
2018-05-01T09:24:44.598Z,5.23
2018-05-01T09:27:12.420Z,4.87
2018-05-01T09:29:40.210Z,5.77
2018-05-01T09:32:08.032Z,5.33
2018-05-01T09:34:36.593Z,4.97
2018-05-01T09:37:04.436Z,4.83
2018-05-01T09:39:32.232Z,5.30
2018-05-01T09:42:00.102Z,5.10
2018-05-01T09:44:27.873Z,4.63
2018-05-01T09:46:55.689Z,4.80
2018-05-01T09:49:23.488Z,5.20
2018-05-01T09:51:51.314Z,5.70
2018-05-01T09:54:19.605Z,5.07
2018-05-01T09:56:47.916Z,5.03
2018-05-01T09:59:16.288Z,4.90
2018-05-01T10:01:44.600Z,5.17
2018-05-01T10:04:12.919Z,5.03
2018-05-01T10:06:41.324Z,4.83
2018-05-01T10:09:09.626Z,5.00
2018-05-01T10:11:38.712Z,4.90
2018-05-01T10:14:06.992Z,5.07
2018-05-01T10:16:36.071Z,4.93
2018-05-01T10:19:04.373Z,4.67
2018-05-01T10:21:33.456Z,5.07
2018-05-01T10:24:01.740Z,5.20
2018-05-01T10:26:30.825Z,5.33
2018-05-01T10:28:59.136Z,4.63
2018-05-01T10:31:27.448Z,4.90
2018-05-01T10:33:55.745Z,5.17
2018-05-01T10:36:24.059Z,4.73
2018-05-01T10:38:53.123Z,4.80
2018-05-01T10:41:21.424Z,4.07
2018-05-01T10:43:50.475Z,5.10
2018-05-01T10:46:18.765Z,4.93
2018-05-01T10:48:47.072Z,4.73
2018-05-01T10:51:16.125Z,3.93
2018-05-01T10:53:44.436Z,4.73
2018-05-01T10:56:12.721Z,4.40
2018-05-01T10:58:41.812Z,4.37
2018-05-01T11:01:10.856Z,4.97
2018-05-01T11:03:39.176Z,5.00
2018-05-01T11:06:07.468Z,4.40
2018-05-01T11:08:36.538Z,3.90
2018-05-01T11:11:04.816Z,4.23
2018-05-01T11:13:33.136Z,4.10
2018-05-01T11:16:01.416Z,4.33
2018-05-01T11:18:29.728Z,4.20
2018-05-01T11:20:58.024Z,4.70
2018-05-01T11:23:26.345Z,4.43
2018-05-01T11:25:54.653Z,3.80
2018-05-01T11:28:22.960Z,3.93
2018-05-01T11:30:51.257Z,3.77
2018-05-01T11:33:20.345Z,4.60
2018-05-01T11:35:49.409Z,4.30
2018-05-01T11:38:17.726Z,3.90
2018-05-01T11:40:46.777Z,3.70
2018-05-01T11:43:15.085Z,4.03
2018-05-01T11:45:43.378Z,4.20
2018-05-01T11:48:12.456Z,4.50
2018-05-01T11:50:40.745Z,3.67
2018-05-01T11:53:09.073Z,4.17
2018-05-01T11:55:37.348Z,3.93
2018-05-01T11:58:05.665Z,3.90
2018-05-01T12:00:33.944Z,3.70
2018-05-01T12:03:03.027Z,4.00
2018-05-01T12:05:31.326Z,7.00
2018-05-01T12:07:59.638Z,4.23
2018-05-01T12:10:28.026Z,5.37
2018-05-01T12:12:56.328Z,4.20
2018-05-01T12:15:25.459Z,3.87
2018-05-01T12:17:54.620Z,4.63
2018-05-01T12:20:23.000Z,4.17
2018-05-01T12:22:51.338Z,3.50
2018-05-01T12:25:19.734Z,3.70
2018-05-01T12:27:53.972Z,4.33
2018-05-01T12:30:22.321Z,3.90
2018-05-01T12:32:50.664Z,5.07
2018-05-01T12:35:19.832Z,4.33
2018-05-01T12:37:48.295Z,4.00
2018-05-01T12:40:16.696Z,4.60
2018-05-01T12:42:45.016Z,3.97
2018-05-01T12:45:13.341Z,3.77
2018-05-01T12:47:41.620Z,3.70
2018-05-01T12:50:09.929Z,4.33
2018-05-01T12:52:38.984Z,3.83
2018-05-01T12:55:07.298Z,3.80
2018-05-01T12:57:36.384Z,3.50
2018-05-01T13:00:04.692Z,4.67
2018-05-01T13:02:32.976Z,3.97
2018-05-01T13:05:01.385Z,4.10
2018-05-01T13:07:29.593Z,3.53
2018-05-01T13:09:57.905Z,3.60
2018-05-01T13:12:26.225Z,4.27
2018-05-01T13:14:54.504Z,4.00
2018-05-01T13:17:22.812Z,3.80
2018-05-01T13:19:51.129Z,3.57
2018-05-01T13:22:19.421Z,3.53
2018-05-01T13:24:47.733Z,3.50
2018-05-01T13:27:16.066Z,3.50
2018-05-01T13:29:45.116Z,4.03
2018-05-01T13:32:13.404Z,3.70
2018-05-01T13:34:42.489Z,4.20
2018-05-01T13:37:10.772Z,5.07
2018-05-01T13:39:39.848Z,7.73
2018-05-01T13:42:08.146Z,8.20
2018-05-01T13:44:37.236Z,3.90
2018-05-01T13:47:05.515Z,4.50
2018-05-01T13:49:33.830Z,3.47
2018-05-01T13:52:02.107Z,3.33
2018-05-01T13:54:30.429Z,3.73
2018-05-01T13:56:58.717Z,4.50
2018-05-01T13:59:27.809Z,4.27
2018-05-01T14:01:56.092Z,3.30
2018-05-01T14:04:24.508Z,3.27
2018-05-01T14:06:52.775Z,3.37
2018-05-01T14:09:21.065Z,3.37
2018-05-01T14:11:49.381Z,3.43
2018-05-01T14:14:17.672Z,3.13
2018-05-01T14:16:46.060Z,3.27
2018-05-01T14:19:14.329Z,3.27
2018-05-01T14:21:42.656Z,3.53
2018-05-01T14:24:10.951Z,2.63
2018-05-01T14:26:39.265Z,2.73
2018-05-01T14:29:07.567Z,3.33
2018-05-01T14:31:35.888Z,2.70
2018-05-01T14:34:04.163Z,3.67
2018-05-01T14:36:32.485Z,3.37
2018-05-01T14:39:01.541Z,4.07
2018-05-01T14:41:29.876Z,3.40
2018-05-01T14:43:58.161Z,2.80
2018-05-01T14:46:26.475Z,2.20
2018-05-01T14:48:54.760Z,2.67
2018-05-01T14:51:23.069Z,2.70
2018-05-01T14:53:52.304Z,2.50
2018-05-01T14:56:20.768Z,2.27
2018-05-01T14:58:49.136Z,2.50
2018-05-01T15:01:17.515Z,2.40
2018-05-01T15:03:46.631Z,2.50
2018-05-01T15:06:15.008Z,2.47
2018-05-01T15:08:43.371Z,2.47
2018-05-01T15:11:11.714Z,2.80
2018-05-01T15:13:40.076Z,2.80
2018-05-01T15:16:08.487Z,2.20
2018-05-01T15:18:36.884Z,3.90
2018-05-01T15:21:06.068Z,2.70
2018-05-01T15:23:35.255Z,2.30
2018-05-01T15:26:03.624Z,3.07
2018-05-01T15:28:32.016Z,5.50
2018-05-01T15:31:00.329Z,4.20
2018-05-01T15:33:28.630Z,4.33
2018-05-01T15:35:56.944Z,4.90
2018-05-01T15:38:25.233Z,3.27
2018-05-01T15:40:53.542Z,2.40
2018-05-01T15:43:21.825Z,2.70
2018-05-01T15:45:50.117Z,2.00
2018-05-01T15:48:18.436Z,2.10
2018-05-01T15:50:46.730Z,1.90
2018-05-01T15:53:15.048Z,2.10
2018-05-01T15:55:43.369Z,2.60
2018-05-01T15:58:11.697Z,1.93
2018-05-01T16:00:40.000Z,2.60
2018-05-01T16:03:08.312Z,1.90
2018-05-01T16:05:37.359Z,2.17
2018-05-01T16:08:05.680Z,2.13
2018-05-01T16:10:33.969Z,2.53
2018-05-01T16:13:03.044Z,2.10
2018-05-01T16:15:31.332Z,2.03
2018-05-01T16:18:00.479Z,2.30
2018-05-01T16:20:28.813Z,1.90
2018-05-01T16:22:57.991Z,2.20
2018-05-01T16:25:26.321Z,2.20
2018-05-01T16:27:54.673Z,3.83
2018-05-01T16:30:23.798Z,4.40
2018-05-01T16:32:52.215Z,6.53
2018-05-01T16:35:20.568Z,3.00
2018-05-01T16:37:48.970Z,2.50
2018-05-01T16:40:17.413Z,5.13
2018-05-01T16:42:45.701Z,2.90
2018-05-01T16:45:14.030Z,2.10
2018-05-01T16:47:43.218Z,2.30
2018-05-01T16:50:11.572Z,2.30
2018-05-01T16:52:39.918Z,2.40
2018-05-01T16:55:08.272Z,2.33
2018-05-01T16:57:37.396Z,2.20
2018-05-01T17:00:05.722Z,2.30
2018-05-01T17:02:34.139Z,1.97
2018-05-01T17:05:02.476Z,2.10
2018-05-01T17:07:30.860Z,2.10
2018-05-01T17:09:59.197Z,2.00
2018-05-01T17:12:27.552Z,2.30
2018-05-01T17:14:55.896Z,2.27
2018-05-01T17:17:25.074Z,2.27
2018-05-01T17:19:53.428Z,2.20
2018-05-01T17:22:21.713Z,2.30
2018-05-01T17:24:50.028Z,2.70
2018-05-01T17:27:18.320Z,2.57
2018-05-01T17:29:46.673Z,2.30
2018-05-01T17:32:15.073Z,2.40
2018-05-01T17:34:44.296Z,2.47
2018-05-01T17:37:12.652Z,2.43
2018-05-01T17:39:41.764Z,2.43
2018-05-01T17:42:10.884Z,2.30
2018-05-01T17:44:39.223Z,2.17
2018-05-01T17:47:07.504Z,2.20
2018-05-01T17:49:35.823Z,2.53
2018-05-01T17:52:04.121Z,1.90
2018-05-01T17:54:32.428Z,2.20
2018-05-01T17:57:00.717Z,1.93
2018-05-01T17:59:29.804Z,1.73
2018-05-01T18:01:58.101Z,1.70
2018-05-01T18:04:27.177Z,1.83
2018-05-01T18:06:55.471Z,1.90
2018-05-01T18:09:23.789Z,2.17
2018-05-01T18:11:52.064Z,2.80
2018-05-01T18:14:20.380Z,2.00
2018-05-01T18:16:48.672Z,4.37
2018-05-01T18:19:17.772Z,4.00
2018-05-01T18:21:46.811Z,3.30
2018-05-01T18:24:15.133Z,2.97
2018-05-01T18:26:44.193Z,2.37
2018-05-01T18:29:12.510Z,2.50
2018-05-01T18:31:41.564Z,1.97
2018-05-01T18:34:09.876Z,1.73
2018-05-01T18:36:38.174Z,1.47
2018-05-01T18:39:07.239Z,1.70
2018-05-01T18:41:35.520Z,2.80
2018-05-01T18:44:03.848Z,9.77
2018-05-01T18:46:32.141Z,7.03
2018-05-01T18:49:00.472Z,4.60
2018-05-01T18:51:29.516Z,3.50
2018-05-01T18:53:57.837Z,3.57
2018-05-01T18:56:26.883Z,3.50
2018-05-01T18:58:55.168Z,2.27
2018-05-01T19:01:23.499Z,2.67
2018-05-01T19:03:52.533Z,2.50
2018-05-01T19:06:21.617Z,1.80
2018-05-01T19:08:49.914Z,1.97
2018-05-01T19:11:18.228Z,2.60
2018-05-01T19:13:47.276Z,1.93
2018-05-01T19:16:15.578Z,1.90
2018-05-01T19:18:43.865Z,1.73
2018-05-01T19:21:12.174Z,2.17
2018-05-01T19:23:40.452Z,2.20
2018-05-01T19:26:08.764Z,1.67
2018-05-01T19:28:37.057Z,2.27
2018-05-01T19:31:05.369Z,2.53
2018-05-01T19:33:34.428Z,2.67
2018-05-01T19:36:02.756Z,2.40
2018-05-01T19:38:31.124Z,4.17
2018-05-01T19:40:59.474Z,5.37
2018-05-01T19:43:27.797Z,2.80
2018-05-01T19:45:56.148Z,2.10
2018-05-01T19:48:24.507Z,2.63
2018-05-01T19:50:53.694Z,1.97
2018-05-01T19:53:22.067Z,1.87
2018-05-01T19:55:50.479Z,2.10
2018-05-01T19:58:19.615Z,2.10
2018-05-01T20:00:48.014Z,2.37
2018-05-01T20:03:16.384Z,2.53
2018-05-01T20:05:44.735Z,2.60
2018-05-01T20:08:13.058Z,2.80
2018-05-01T20:10:42.282Z,2.93
2018-05-01T20:13:11.394Z,2.50
2018-05-01T20:15:40.580Z,2.30
2018-05-01T20:18:08.921Z,2.60
2018-05-01T20:20:37.288Z,2.60
2018-05-01T20:23:05.669Z,2.50
2018-05-01T20:25:33.975Z,2.37
2018-05-01T20:28:02.244Z,2.17
2018-05-01T20:30:30.582Z,2.00
2018-05-01T20:32:58.883Z,2.10
2018-05-01T20:35:27.196Z,2.23
2018-05-01T20:37:55.464Z,2.57
2018-05-01T20:40:23.765Z,2.17
2018-05-01T20:42:52.049Z,2.37
2018-05-01T20:45:20.370Z,7.13
2018-05-01T20:47:48.654Z,5.13
2018-05-01T20:50:16.931Z,2.57
2018-05-01T20:52:45.237Z,3.13
2018-05-01T20:55:13.514Z,3.00
2018-05-01T20:57:41.818Z,2.70
2018-05-01T21:00:10.864Z,2.77
2018-05-01T21:02:39.173Z,2.43
2018-05-01T21:05:07.505Z,2.70
2018-05-01T21:07:35.827Z,3.00
2018-05-01T21:10:04.103Z,2.40
2018-05-01T21:12:32.415Z,3.07
2018-05-01T21:15:00.693Z,3.00
2018-05-01T21:17:29.000Z,2.83
2018-05-01T21:19:57.271Z,3.00
2018-05-01T21:22:25.580Z,3.13
2018-05-01T21:24:53.872Z,2.70
2018-05-01T21:27:22.189Z,2.43
2018-05-01T21:29:50.476Z,2.93
2018-05-01T21:32:18.790Z,2.50
2018-05-01T21:34:47.077Z,2.27
2018-05-01T21:37:15.387Z,2.50
2018-05-01T21:39:43.683Z,2.37
2018-05-01T21:42:12.000Z,2.57
2018-05-01T21:44:40.272Z,2.27
2018-05-01T21:47:08.589Z,2.43
2018-05-01T21:49:37.634Z,2.47
2018-05-01T21:52:05.933Z,2.77
2018-05-01T21:54:34.211Z,2.93
2018-05-01T21:57:02.525Z,2.80
2018-05-01T21:59:30.817Z,2.90
2018-05-01T22:01:59.133Z,2.60
2018-05-01T22:04:27.416Z,2.30
2018-05-01T22:06:55.712Z,2.83
2018-05-01T22:09:24.771Z,2.90
2018-05-01T22:11:53.107Z,2.90
2018-05-01T22:14:21.453Z,2.50
2018-05-01T22:16:49.808Z,3.27
2018-05-01T22:19:18.150Z,2.90
2018-05-01T22:21:46.455Z,2.70
2018-05-01T22:24:14.764Z,2.73
2018-05-01T22:26:43.825Z,3.20
2018-05-01T22:29:12.130Z,3.07
2018-05-01T22:31:40.401Z,2.50
2018-05-01T22:34:08.712Z,3.17
2018-05-01T22:36:36.996Z,3.10
2018-05-01T22:39:05.328Z,2.93
2018-05-01T22:41:33.600Z,3.07
2018-05-01T22:44:01.913Z,2.97
2018-05-01T22:46:30.959Z,2.70
2018-05-01T22:48:59.273Z,2.93
2018-05-01T22:51:27.541Z,2.67
2018-05-01T22:53:55.845Z,3.10
2018-05-01T22:56:24.121Z,2.73
2018-05-01T22:58:52.420Z,2.60
2018-05-01T23:01:20.693Z,2.57
2018-05-01T23:03:49.001Z,2.67
2018-05-01T23:06:17.284Z,2.30
2018-05-01T23:08:45.603Z,2.60
2018-05-01T23:11:14.649Z,2.60
2018-05-01T23:13:42.974Z,2.77
2018-05-01T23:16:12.025Z,2.87
2018-05-01T23:18:40.336Z,2.80
2018-05-01T23:21:08.644Z,2.90
2018-05-01T23:23:36.955Z,2.97
2018-05-01T23:26:05.236Z,3.07
2018-05-01T23:28:33.563Z,2.80
2018-05-01T23:31:02.604Z,2.77
2018-05-01T23:36:41.833Z,2.80
2018-05-01T23:39:10.141Z,2.77
2018-05-01T23:41:38.412Z,2.70
2018-05-01T23:44:06.730Z,2.90
2018-05-01T23:46:35.005Z,3.37
2018-05-01T23:49:03.329Z,2.97
2018-05-01T23:51:31.629Z,2.80
2018-05-01T23:53:59.957Z,3.87
2018-05-01T23:56:28.232Z,3.00
2018-05-01T23:58:57.368Z,2.80
